sensor_id;sensor_type;location;lat;lon;timestamp;P1;durP1;ratioP1;P2;durP2;ratioP2
21494;SDS011;10909;53.590;10.054;2023-05-10T00:02:07;2.08;;;1.83;;
21494;SDS011;10909;53.590;10.054;2023-05-10T00:04:33;3.17;;;2.22;;
21494;SDS011;10909;53.590;10.054;2023-05-10T00:06:58;4.60;;;2.40;;
21494;SDS011;10909;53.590;10.054;2023-05-10T00:09:24;1.98;;;1.70;;
21494;SDS011;10909;53.590;10.054;2023-05-10T00:11:51;2.75;;;2.08;;
21494;SDS011;10909;53.590;10.054;2023-05-10T00:14:16;1.90;;;1.80;;
21494;SDS011;10909;53.590;10.054;2023-05-10T00:16:45;2.92;;;1.70;;
21494;SDS011;10909;53.590;10.054;2023-05-10T00:19:10;3.55;;;1.90;;
21494;SDS011;10909;53.590;10.054;2023-05-10T00:21:36;2.55;;;2.15;;
21494;SDS011;10909;53.590;10.054;2023-05-10T00:24:02;2.92;;;2.17;;
21494;SDS011;10909;53.590;10.054;2023-05-10T00:26:28;2.30;;;2.00;;
21494;SDS011;10909;53.590;10.054;2023-05-10T00:28:54;2.60;;;2.10;;
21494;SDS011;10909;53.590;10.054;2023-05-10T00:31:26;4.30;;;2.20;;
21494;SDS011;10909;53.590;10.054;2023-05-10T00:33:53;2.10;;;1.80;;
21494;SDS011;10909;53.590;10.054;2023-05-10T00:36:20;3.80;;;1.98;;
21494;SDS011;10909;53.590;10.054;2023-05-10T00:38:46;2.20;;;2.00;;
21494;SDS011;10909;53.590;10.054;2023-05-10T00:41:12;3.05;;;2.10;;
21494;SDS011;10909;53.590;10.054;2023-05-10T00:43:38;2.05;;;1.80;;
21494;SDS011;10909;53.590;10.054;2023-05-10T00:46:05;2.50;;;2.05;;
21494;SDS011;10909;53.590;10.054;2023-05-10T00:48:32;2.45;;;1.80;;
21494;SDS011;10909;53.590;10.054;2023-05-10T00:50:58;2.78;;;1.85;;
21494;SDS011;10909;53.590;10.054;2023-05-10T00:53:28;2.22;;;1.85;;
21494;SDS011;10909;53.590;10.054;2023-05-10T00:55:56;2.72;;;2.00;;
21494;SDS011;10909;53.590;10.054;2023-05-10T00:58:22;2.85;;;1.65;;
21494;SDS011;10909;53.590;10.054;2023-05-10T01:00:48;3.13;;;2.15;;
21494;SDS011;10909;53.590;10.054;2023-05-10T01:03:15;4.03;;;2.10;;
21494;SDS011;10909;53.590;10.054;2023-05-10T01:05:42;2.25;;;2.03;;
21494;SDS011;10909;53.590;10.054;2023-05-10T01:08:07;2.15;;;1.90;;
21494;SDS011;10909;53.590;10.054;2023-05-10T01:10:35;1.95;;;1.85;;
21494;SDS011;10909;53.590;10.054;2023-05-10T01:13:04;2.50;;;2.05;;
21494;SDS011;10909;53.590;10.054;2023-05-10T01:15:30;2.35;;;2.10;;
21494;SDS011;10909;53.590;10.054;2023-05-10T01:17:56;2.17;;;1.85;;
21494;SDS011;10909;53.590;10.054;2023-05-10T01:20:22;2.88;;;2.13;;
21494;SDS011;10909;53.590;10.054;2023-05-10T01:31:33;2.88;;;1.77;;
21494;SDS011;10909;53.590;10.054;2023-05-10T01:34:25;2.55;;;2.00;;
21494;SDS011;10909;53.590;10.054;2023-05-10T01:36:58;3.90;;;2.00;;
21494;SDS011;10909;53.590;10.054;2023-05-10T01:39:45;2.03;;;1.85;;
21494;SDS011;10909;53.590;10.054;2023-05-10T01:42:44;2.55;;;1.95;;
21494;SDS011;10909;53.590;10.054;2023-05-10T01:45:27;1.85;;;1.73;;
21494;SDS011;10909;53.590;10.054;2023-05-10T01:48:03;1.90;;;1.70;;
21494;SDS011;10909;53.590;10.054;2023-05-10T01:50:41;2.30;;;2.00;;
21494;SDS011;10909;53.590;10.054;2023-05-10T01:53:12;4.05;;;2.42;;
21494;SDS011;10909;53.590;10.054;2023-05-10T01:55:44;2.50;;;1.90;;
21494;SDS011;10909;53.590;10.054;2023-05-10T01:58:20;2.28;;;2.08;;
21494;SDS011;10909;53.590;10.054;2023-05-10T02:00:53;2.08;;;1.88;;
21494;SDS011;10909;53.590;10.054;2023-05-10T02:03:27;3.00;;;1.92;;
21494;SDS011;10909;53.590;10.054;2023-05-10T02:08:30;3.45;;;2.05;;
21494;SDS011;10909;53.590;10.054;2023-05-10T02:10:59;2.58;;;1.98;;
21494;SDS011;10909;53.590;10.054;2023-05-10T02:13:31;1.75;;;1.65;;
21494;SDS011;10909;53.590;10.054;2023-05-10T02:16:05;3.67;;;1.98;;
21494;SDS011;10909;53.590;10.054;2023-05-10T02:18:32;2.42;;;1.60;;
21494;SDS011;10909;53.590;10.054;2023-05-10T02:21:02;2.67;;;2.05;;
21494;SDS011;10909;53.590;10.054;2023-05-10T02:23:30;3.33;;;2.28;;
21494;SDS011;10909;53.590;10.054;2023-05-10T02:26:03;2.70;;;2.00;;
21494;SDS011;10909;53.590;10.054;2023-05-10T02:28:32;2.10;;;1.90;;
21494;SDS011;10909;53.590;10.054;2023-05-10T02:31:02;4.53;;;2.28;;
21494;SDS011;10909;53.590;10.054;2023-05-10T02:33:29;2.63;;;2.30;;
21494;SDS011;10909;53.590;10.054;2023-05-10T02:35:59;1.97;;;1.73;;
21494;SDS011;10909;53.590;10.054;2023-05-10T02:38:27;2.37;;;2.00;;
21494;SDS011;10909;53.590;10.054;2023-05-10T02:40:55;2.45;;;1.95;;
21494;SDS011;10909;53.590;10.054;2023-05-10T02:43:22;2.00;;;1.80;;
21494;SDS011;10909;53.590;10.054;2023-05-10T02:45:49;3.73;;;1.93;;
21494;SDS011;10909;53.590;10.054;2023-05-10T02:48:15;2.20;;;1.90;;
21494;SDS011;10909;53.590;10.054;2023-05-10T02:50:44;2.47;;;2.00;;
21494;SDS011;10909;53.590;10.054;2023-05-10T02:53:18;2.95;;;2.00;;
21494;SDS011;10909;53.590;10.054;2023-05-10T02:55:49;4.03;;;2.00;;
21494;SDS011;10909;53.590;10.054;2023-05-10T02:58:17;2.33;;;2.13;;
21494;SDS011;10909;53.590;10.054;2023-05-10T03:00:44;2.35;;;2.13;;
21494;SDS011;10909;53.590;10.054;2023-05-10T03:03:14;2.80;;;1.63;;
21494;SDS011;10909;53.590;10.054;2023-05-10T03:05:46;2.05;;;1.83;;
21494;SDS011;10909;53.590;10.054;2023-05-10T03:08:12;2.75;;;2.00;;
21494;SDS011;10909;53.590;10.054;2023-05-10T03:11:00;3.17;;;1.97;;
21494;SDS011;10909;53.590;10.054;2023-05-10T03:13:51;2.45;;;2.15;;
21494;SDS011;10909;53.590;10.054;2023-05-10T03:16:35;2.63;;;1.70;;
21494;SDS011;10909;53.590;10.054;2023-05-10T03:21:47;2.30;;;2.10;;
21494;SDS011;10909;53.590;10.054;2023-05-10T03:24:20;3.97;;;2.10;;
21494;SDS011;10909;53.590;10.054;2023-05-10T03:26:48;3.83;;;2.10;;
21494;SDS011;10909;53.590;10.054;2023-05-10T03:29:19;2.47;;;1.80;;
21494;SDS011;10909;53.590;10.054;2023-05-10T03:31:51;3.17;;;1.90;;
21494;SDS011;10909;53.590;10.054;2023-05-10T03:34:22;2.97;;;2.07;;
21494;SDS011;10909;53.590;10.054;2023-05-10T03:36:51;5.10;;;2.10;;
21494;SDS011;10909;53.590;10.054;2023-05-10T03:39:17;5.77;;;2.20;;
21494;SDS011;10909;53.590;10.054;2023-05-10T03:41:43;2.40;;;2.07;;
21494;SDS011;10909;53.590;10.054;2023-05-10T03:44:08;2.27;;;1.90;;
21494;SDS011;10909;53.590;10.054;2023-05-10T03:46:34;2.00;;;1.80;;
21494;SDS011;10909;53.590;10.054;2023-05-10T03:49:01;2.40;;;2.00;;
21494;SDS011;10909;53.590;10.054;2023-05-10T03:51:27;2.07;;;1.60;;
21494;SDS011;10909;53.590;10.054;2023-05-10T03:53:56;2.37;;;1.90;;
21494;SDS011;10909;53.590;10.054;2023-05-10T03:56:27;2.50;;;1.90;;
21494;SDS011;10909;53.590;10.054;2023-05-10T03:58:53;2.10;;;1.90;;
21494;SDS011;10909;53.590;10.054;2023-05-10T04:01:19;4.17;;;2.07;;
21494;SDS011;10909;53.590;10.054;2023-05-10T04:03:45;2.40;;;2.20;;
21494;SDS011;10909;53.590;10.054;2023-05-10T04:06:13;2.20;;;2.00;;
21494;SDS011;10909;53.590;10.054;2023-05-10T04:08:44;2.37;;;2.17;;
21494;SDS011;10909;53.590;10.054;2023-05-10T04:11:25;3.60;;;2.17;;
21494;SDS011;10909;53.590;10.054;2023-05-10T04:13:50;2.07;;;1.87;;
21494;SDS011;10909;53.590;10.054;2023-05-10T04:16:16;3.58;;;2.40;;
21494;SDS011;10909;53.590;10.054;2023-05-10T04:18:42;3.20;;;2.40;;
21494;SDS011;10909;53.590;10.054;2023-05-10T04:21:12;3.47;;;2.27;;
21494;SDS011;10909;53.590;10.054;2023-05-10T04:23:38;2.27;;;1.90;;
21494;SDS011;10909;53.590;10.054;2023-05-10T04:26:06;2.50;;;2.30;;
21494;SDS011;10909;53.590;10.054;2023-05-10T04:28:32;4.10;;;2.50;;
21494;SDS011;10909;53.590;10.054;2023-05-10T04:31:16;2.23;;;2.03;;
21494;SDS011;10909;53.590;10.054;2023-05-10T04:33:47;3.33;;;2.37;;
21494;SDS011;10909;53.590;10.054;2023-05-10T04:36:13;2.93;;;2.17;;
21494;SDS011;10909;53.590;10.054;2023-05-10T04:38:40;2.13;;;1.92;;
21494;SDS011;10909;53.590;10.054;2023-05-10T04:41:08;3.37;;;2.10;;
21494;SDS011;10909;53.590;10.054;2023-05-10T04:43:47;3.43;;;2.33;;
21494;SDS011;10909;53.590;10.054;2023-05-10T04:46:14;2.47;;;2.27;;
21494;SDS011;10909;53.590;10.054;2023-05-10T04:48:40;4.13;;;2.23;;
21494;SDS011;10909;53.590;10.054;2023-05-10T04:51:06;2.10;;;1.87;;
21494;SDS011;10909;53.590;10.054;2023-05-10T04:53:31;3.05;;;2.13;;
21494;SDS011;10909;53.590;10.054;2023-05-10T04:55:57;2.47;;;2.27;;
21494;SDS011;10909;53.590;10.054;2023-05-10T04:58:23;2.13;;;1.92;;
21494;SDS011;10909;53.590;10.054;2023-05-10T05:00:49;2.20;;;2.00;;
21494;SDS011;10909;53.590;10.054;2023-05-10T05:03:15;2.92;;;2.40;;
21494;SDS011;10909;53.590;10.054;2023-05-10T05:05:41;3.85;;;2.30;;
21494;SDS011;10909;53.590;10.054;2023-05-10T05:08:08;2.80;;;2.15;;
21494;SDS011;10909;53.590;10.054;2023-05-10T05:10:34;2.70;;;2.15;;
21494;SDS011;10909;53.590;10.054;2023-05-10T05:13:00;3.22;;;2.38;;
21494;SDS011;10909;53.590;10.054;2023-05-10T05:15:31;2.78;;;2.20;;
21494;SDS011;10909;53.590;10.054;2023-05-10T05:17:59;2.28;;;2.08;;
21494;SDS011;10909;53.590;10.054;2023-05-10T05:20:26;2.85;;;2.10;;
21494;SDS011;10909;53.590;10.054;2023-05-10T05:22:52;2.78;;;2.58;;
21494;SDS011;10909;53.590;10.054;2023-05-10T05:25:17;2.13;;;1.92;;
21494;SDS011;10909;53.590;10.054;2023-05-10T05:27:43;2.72;;;2.30;;
21494;SDS011;10909;53.590;10.054;2023-05-10T05:30:09;2.45;;;2.22;;
21494;SDS011;10909;53.590;10.054;2023-05-10T05:32:36;3.38;;;2.13;;
21494;SDS011;10909;53.590;10.054;2023-05-10T05:35:03;1.90;;;1.70;;
21494;SDS011;10909;53.590;10.054;2023-05-10T05:37:30;2.65;;;1.98;;
21494;SDS011;10909;53.590;10.054;2023-05-10T05:39:56;2.75;;;2.10;;
21494;SDS011;10909;53.590;10.054;2023-05-10T05:42:22;2.97;;;2.00;;
21494;SDS011;10909;53.590;10.054;2023-05-10T05:44:49;2.20;;;2.00;;
21494;SDS011;10909;53.590;10.054;2023-05-10T05:47:20;3.13;;;2.30;;
21494;SDS011;10909;53.590;10.054;2023-05-10T05:49:46;2.20;;;2.00;;
21494;SDS011;10909;53.590;10.054;2023-05-10T05:52:12;3.42;;;2.45;;
21494;SDS011;10909;53.590;10.054;2023-05-10T05:54:38;2.92;;;2.20;;
21494;SDS011;10909;53.590;10.054;2023-05-10T05:57:11;3.30;;;2.40;;
21494;SDS011;10909;53.590;10.054;2023-05-10T05:59:41;2.72;;;2.35;;
21494;SDS011;10909;53.590;10.054;2023-05-10T06:02:16;3.20;;;2.25;;
21494;SDS011;10909;53.590;10.054;2023-05-10T06:04:45;2.47;;;2.08;;
21494;SDS011;10909;53.590;10.054;2023-05-10T06:07:15;2.50;;;2.30;;
21494;SDS011;10909;53.590;10.054;2023-05-10T06:09:41;3.17;;;2.10;;
21494;SDS011;10909;53.590;10.054;2023-05-10T06:12:10;3.30;;;2.58;;
21494;SDS011;10909;53.590;10.054;2023-05-10T06:14:36;2.80;;;2.40;;
21494;SDS011;10909;53.590;10.054;2023-05-10T06:17:05;4.60;;;2.10;;
21494;SDS011;10909;53.590;10.054;2023-05-10T06:19:31;4.68;;;2.38;;
21494;SDS011;10909;53.590;10.054;2023-05-10T06:21:57;2.65;;;2.25;;
21494;SDS011;10909;53.590;10.054;2023-05-10T06:24:23;3.35;;;2.55;;
21494;SDS011;10909;53.590;10.054;2023-05-10T06:26:53;2.40;;;2.20;;
21494;SDS011;10909;53.590;10.054;2023-05-10T06:29:21;2.47;;;2.08;;
21494;SDS011;10909;53.590;10.054;2023-05-10T06:31:56;2.90;;;2.25;;
21494;SDS011;10909;53.590;10.054;2023-05-10T06:34:30;2.40;;;2.03;;
21494;SDS011;10909;53.590;10.054;2023-05-10T06:37:05;2.67;;;2.28;;
21494;SDS011;10909;53.590;10.054;2023-05-10T06:39:35;3.78;;;2.40;;
21494;SDS011;10909;53.590;10.054;2023-05-10T06:42:01;2.70;;;2.38;;
21494;SDS011;10909;53.590;10.054;2023-05-10T06:44:29;2.53;;;2.33;;
21494;SDS011;10909;53.590;10.054;2023-05-10T06:46:56;3.78;;;2.40;;
21494;SDS011;10909;53.590;10.054;2023-05-10T06:49:27;3.22;;;2.30;;
21494;SDS011;10909;53.590;10.054;2023-05-10T06:52:01;3.38;;;2.60;;
21494;SDS011;10909;53.590;10.054;2023-05-10T06:54:36;3.22;;;2.40;;
21494;SDS011;10909;53.590;10.054;2023-05-10T06:57:09;3.00;;;2.35;;
21494;SDS011;10909;53.590;10.054;2023-05-10T06:59:35;2.60;;;2.40;;
21494;SDS011;10909;53.590;10.054;2023-05-10T07:02:07;2.97;;;2.50;;
21494;SDS011;10909;53.590;10.054;2023-05-10T07:04:33;3.20;;;2.47;;
21494;SDS011;10909;53.590;10.054;2023-05-10T07:06:59;3.13;;;2.30;;
21494;SDS011;10909;53.590;10.054;2023-05-10T07:09:29;2.80;;;2.40;;
21494;SDS011;10909;53.590;10.054;2023-05-10T07:11:57;2.85;;;2.50;;
21494;SDS011;10909;53.590;10.054;2023-05-10T07:14:24;3.72;;;2.30;;
21494;SDS011;10909;53.590;10.054;2023-05-10T07:16:49;2.40;;;2.20;;
21494;SDS011;10909;53.590;10.054;2023-05-10T07:19:15;2.38;;;2.17;;
21494;SDS011;10909;53.590;10.054;2023-05-10T07:21:41;4.22;;;2.50;;
21494;SDS011;10909;53.590;10.054;2023-05-10T07:24:08;4.18;;;2.75;;
21494;SDS011;10909;53.590;10.054;2023-05-10T07:26:36;3.17;;;2.40;;
21494;SDS011;10909;53.590;10.054;2023-05-10T07:29:02;2.65;;;2.45;;
21494;SDS011;10909;53.590;10.054;2023-05-10T07:31:28;3.30;;;2.45;;
21494;SDS011;10909;53.590;10.054;2023-05-10T07:33:53;4.18;;;2.50;;
21494;SDS011;10909;53.590;10.054;2023-05-10T07:36:19;2.55;;;2.35;;
21494;SDS011;10909;53.590;10.054;2023-05-10T07:38:45;2.70;;;2.42;;
21494;SDS011;10909;53.590;10.054;2023-05-10T07:41:11;2.78;;;2.42;;
21494;SDS011;10909;53.590;10.054;2023-05-10T07:43:37;2.30;;;2.10;;
21494;SDS011;10909;53.590;10.054;2023-05-10T07:46:15;2.58;;;2.38;;
21494;SDS011;10909;53.590;10.054;2023-05-10T07:48:45;3.58;;;2.40;;
21494;SDS011;10909;53.590;10.054;2023-05-10T07:51:12;3.72;;;2.47;;
21494;SDS011;10909;53.590;10.054;2023-05-10T07:53:42;3.47;;;2.30;;
21494;SDS011;10909;53.590;10.054;2023-05-10T07:59:01;2.97;;;2.67;;
21494;SDS011;10909;53.590;10.054;2023-05-10T08:05:04;2.58;;;2.10;;
21494;SDS011;10909;53.590;10.054;2023-05-10T08:07:49;3.28;;;2.60;;
21494;SDS011;10909;53.590;10.054;2023-05-10T08:10:15;2.78;;;2.58;;
21494;SDS011;10909;53.590;10.054;2023-05-10T08:12:41;2.97;;;2.55;;
21494;SDS011;10909;53.590;10.054;2023-05-10T08:15:09;2.50;;;2.30;;
21494;SDS011;10909;53.590;10.054;2023-05-10T08:17:35;2.83;;;2.40;;
21494;SDS011;10909;53.590;10.054;2023-05-10T08:20:01;2.47;;;1.83;;
21494;SDS011;10909;53.590;10.054;2023-05-10T08:22:27;2.75;;;2.33;;
21494;SDS011;10909;53.590;10.054;2023-05-10T08:24:52;2.55;;;2.35;;
21494;SDS011;10909;53.590;10.054;2023-05-10T08:27:18;2.30;;;2.10;;
21494;SDS011;10909;53.590;10.054;2023-05-10T08:29:44;3.25;;;2.10;;
21494;SDS011;10909;53.590;10.054;2023-05-10T08:32:09;2.60;;;2.33;;
21494;SDS011;10909;53.590;10.054;2023-05-10T08:34:35;2.72;;;2.30;;
21494;SDS011;10909;53.590;10.054;2023-05-10T08:37:01;2.58;;;2.38;;
21494;SDS011;10909;53.590;10.054;2023-05-10T08:39:27;2.60;;;2.40;;
21494;SDS011;10909;53.590;10.054;2023-05-10T08:41:57;2.50;;;2.30;;
21494;SDS011;10909;53.590;10.054;2023-05-10T08:44:29;4.40;;;2.50;;
21494;SDS011;10909;53.590;10.054;2023-05-10T08:46:58;4.15;;;2.53;;
21494;SDS011;10909;53.590;10.054;2023-05-10T08:49:27;3.08;;;2.60;;
21494;SDS011;10909;53.590;10.054;2023-05-10T08:51:54;3.35;;;2.55;;
21494;SDS011;10909;53.590;10.054;2023-05-10T08:54:25;4.07;;;2.65;;
21494;SDS011;10909;53.590;10.054;2023-05-10T08:57:11;4.35;;;2.42;;
21494;SDS011;10909;53.590;10.054;2023-05-10T08:59:42;5.50;;;2.70;;
21494;SDS011;10909;53.590;10.054;2023-05-10T09:02:11;3.15;;;2.47;;
21494;SDS011;10909;53.590;10.054;2023-05-10T09:04:38;3.00;;;2.70;;
21494;SDS011;10909;53.590;10.054;2023-05-10T09:07:04;3.88;;;2.72;;
21494;SDS011;10909;53.590;10.054;2023-05-10T09:09:31;3.58;;;2.80;;
21494;SDS011;10909;53.590;10.054;2023-05-10T09:11:57;6.00;;;2.88;;
21494;SDS011;10909;53.590;10.054;2023-05-10T09:14:23;2.80;;;2.60;;
21494;SDS011;10909;53.590;10.054;2023-05-10T09:16:53;3.42;;;3.10;;
21494;SDS011;10909;53.590;10.054;2023-05-10T09:19:21;3.75;;;2.80;;
21494;SDS011;10909;53.590;10.054;2023-05-10T09:21:48;3.47;;;2.60;;
21494;SDS011;10909;53.590;10.054;2023-05-10T09:24:20;3.65;;;2.45;;
21494;SDS011;10909;53.590;10.054;2023-05-10T09:27:13;4.03;;;2.40;;
21494;SDS011;10909;53.590;10.054;2023-05-10T09:29:41;4.32;;;2.72;;
21494;SDS011;10909;53.590;10.054;2023-05-10T09:32:07;4.00;;;2.85;;
21494;SDS011;10909;53.590;10.054;2023-05-10T09:34:33;3.00;;;2.70;;
21494;SDS011;10909;53.590;10.054;2023-05-10T09:37:02;6.03;;;2.85;;
21494;SDS011;10909;53.590;10.054;2023-05-10T09:39:34;3.15;;;2.78;;
21494;SDS011;10909;53.590;10.054;2023-05-10T09:42:04;3.20;;;2.88;;
21494;SDS011;10909;53.590;10.054;2023-05-10T09:44:32;3.53;;;2.70;;
21494;SDS011;10909;53.590;10.054;2023-05-10T09:46:59;6.00;;;2.67;;
21494;SDS011;10909;53.590;10.054;2023-05-10T09:49:30;2.70;;;2.50;;
21494;SDS011;10909;53.590;10.054;2023-05-10T09:51:59;5.32;;;2.75;;
21494;SDS011;10909;53.590;10.054;2023-05-10T09:54:34;3.92;;;3.28;;
21494;SDS011;10909;53.590;10.054;2023-05-10T09:57:06;4.22;;;2.90;;
21494;SDS011;10909;53.590;10.054;2023-05-10T09:59:46;3.30;;;2.90;;
21494;SDS011;10909;53.590;10.054;2023-05-10T10:02:27;3.22;;;2.70;;
21494;SDS011;10909;53.590;10.054;2023-05-10T10:04:54;3.28;;;2.97;;
21494;SDS011;10909;53.590;10.054;2023-05-10T10:07:23;3.83;;;3.45;;
21494;SDS011;10909;53.590;10.054;2023-05-10T10:09:50;4.45;;;3.10;;
21494;SDS011;10909;53.590;10.054;2023-05-10T10:12:18;3.90;;;3.20;;
21494;SDS011;10909;53.590;10.054;2023-05-10T10:14:47;5.57;;;2.90;;
21494;SDS011;10909;53.590;10.054;2023-05-10T10:17:17;4.72;;;3.08;;
21494;SDS011;10909;53.590;10.054;2023-05-10T10:19:54;3.00;;;2.70;;
21494;SDS011;10909;53.590;10.054;2023-05-10T10:22:34;3.53;;;3.22;;
21494;SDS011;10909;53.590;10.054;2023-05-10T10:25:22;3.72;;;3.30;;
21494;SDS011;10909;53.590;10.054;2023-05-10T10:28:15;4.32;;;3.38;;
21494;SDS011;10909;53.590;10.054;2023-05-10T10:30:49;3.70;;;3.25;;
21494;SDS011;10909;53.590;10.054;2023-05-10T10:33:49;3.58;;;3.28;;
21494;SDS011;10909;53.590;10.054;2023-05-10T10:36:21;4.28;;;3.10;;
21494;SDS011;10909;53.590;10.054;2023-05-10T10:39:04;3.90;;;3.00;;
21494;SDS011;10909;53.590;10.054;2023-05-10T10:41:51;4.13;;;3.40;;
21494;SDS011;10909;53.590;10.054;2023-05-10T10:55:47;4.25;;;3.30;;
21494;SDS011;10909;53.590;10.054;2023-05-10T10:58:38;4.53;;;3.83;;
21494;SDS011;10909;53.590;10.054;2023-05-10T11:01:10;3.85;;;3.55;;
21494;SDS011;10909;53.590;10.054;2023-05-10T11:06:32;4.25;;;3.80;;
21494;SDS011;10909;53.590;10.054;2023-05-10T11:09:08;4.18;;;3.53;;
21494;SDS011;10909;53.590;10.054;2023-05-10T11:11:53;4.07;;;3.65;;
21494;SDS011;10909;53.590;10.054;2023-05-10T11:14:23;4.47;;;3.90;;
21494;SDS011;10909;53.590;10.054;2023-05-10T11:16:54;4.28;;;3.88;;
21494;SDS011;10909;53.590;10.054;2023-05-10T11:19:22;4.10;;;3.70;;
21494;SDS011;10909;53.590;10.054;2023-05-10T11:22:12;3.88;;;3.58;;
21494;SDS011;10909;53.590;10.054;2023-05-10T11:24:40;5.18;;;3.65;;
21494;SDS011;10909;53.590;10.054;2023-05-10T11:27:10;4.05;;;3.65;;
21494;SDS011;10909;53.590;10.054;2023-05-10T11:29:37;6.13;;;3.80;;
21494;SDS011;10909;53.590;10.054;2023-05-10T11:32:03;5.03;;;3.75;;
21494;SDS011;10909;53.590;10.054;2023-05-10T11:34:33;7.38;;;3.92;;
21494;SDS011;10909;53.590;10.054;2023-05-10T11:36:59;4.20;;;3.80;;
21494;SDS011;10909;53.590;10.054;2023-05-10T11:39:25;3.67;;;3.38;;
21494;SDS011;10909;53.590;10.054;2023-05-10T11:41:53;3.90;;;3.53;;
21494;SDS011;10909;53.590;10.054;2023-05-10T11:44:20;3.97;;;3.58;;
21494;SDS011;10909;53.590;10.054;2023-05-10T11:46:46;3.92;;;3.60;;
21494;SDS011;10909;53.590;10.054;2023-05-10T11:49:11;3.75;;;3.45;;
21494;SDS011;10909;53.590;10.054;2023-05-10T11:51:38;3.72;;;3.40;;
21494;SDS011;10909;53.590;10.054;2023-05-10T11:54:08;4.40;;;4.00;;
21494;SDS011;10909;53.590;10.054;2023-05-10T11:56:40;4.13;;;3.80;;
21494;SDS011;10909;53.590;10.054;2023-05-10T11:59:06;4.03;;;3.72;;
21494;SDS011;10909;53.590;10.054;2023-05-10T12:01:34;4.55;;;4.15;;
21494;SDS011;10909;53.590;10.054;2023-05-10T12:04:00;4.40;;;4.00;;
21494;SDS011;10909;53.590;10.054;2023-05-10T12:06:27;4.40;;;4.00;;
21494;SDS011;10909;53.590;10.054;2023-05-10T12:08:57;4.68;;;4.28;;
21494;SDS011;10909;53.590;10.054;2023-05-10T12:11:24;3.38;;;2.92;;
21494;SDS011;10909;53.590;10.054;2023-05-10T12:13:52;5.47;;;4.40;;
21494;SDS011;10909;53.590;10.054;2023-05-10T12:16:26;4.30;;;3.90;;
21494;SDS011;10909;53.590;10.054;2023-05-10T12:18:58;4.32;;;3.92;;
21494;SDS011;10909;53.590;10.054;2023-05-10T12:21:25;4.45;;;4.05;;
21494;SDS011;10909;53.590;10.054;2023-05-10T12:23:54;4.10;;;3.70;;
21494;SDS011;10909;53.590;10.054;2023-05-10T12:26:29;4.40;;;4.00;;
21494;SDS011;10909;53.590;10.054;2023-05-10T12:29:11;3.92;;;3.58;;
21494;SDS011;10909;53.590;10.054;2023-05-10T12:31:59;4.10;;;3.70;;
21494;SDS011;10909;53.590;10.054;2023-05-10T12:34:31;4.55;;;3.78;;
21494;SDS011;10909;53.590;10.054;2023-05-10T12:37:03;4.50;;;3.97;;
21494;SDS011;10909;53.590;10.054;2023-05-10T12:39:43;5.10;;;3.90;;
21494;SDS011;10909;53.590;10.054;2023-05-10T12:42:11;4.65;;;4.15;;
21494;SDS011;10909;53.590;10.054;2023-05-10T12:44:38;5.13;;;4.63;;
21494;SDS011;10909;53.590;10.054;2023-05-10T12:47:08;4.93;;;4.43;;
21494;SDS011;10909;53.590;10.054;2023-05-10T12:49:38;4.43;;;4.03;;
21494;SDS011;10909;53.590;10.054;2023-05-10T12:52:10;4.57;;;3.97;;
21494;SDS011;10909;53.590;10.054;2023-05-10T12:54:37;4.28;;;3.88;;
21494;SDS011;10909;53.590;10.054;2023-05-10T12:57:08;4.38;;;4.00;;
21494;SDS011;10909;53.590;10.054;2023-05-10T12:59:35;6.00;;;4.20;;
21494;SDS011;10909;53.590;10.054;2023-05-10T13:02:02;5.15;;;4.30;;
21494;SDS011;10909;53.590;10.054;2023-05-10T13:04:28;5.60;;;3.95;;
21494;SDS011;10909;53.590;10.054;2023-05-10T13:07:00;4.93;;;4.50;;
21494;SDS011;10909;53.590;10.054;2023-05-10T13:09:28;4.35;;;3.97;;
21494;SDS011;10909;53.590;10.054;2023-05-10T13:11:54;4.32;;;3.92;;
21494;SDS011;10909;53.590;10.054;2023-05-10T13:14:21;3.67;;;3.38;;
21494;SDS011;10909;53.590;10.054;2023-05-10T13:16:48;4.25;;;3.83;;
21494;SDS011;10909;53.590;10.054;2023-05-10T13:19:14;3.08;;;2.78;;
21494;SDS011;10909;53.590;10.054;2023-05-10T13:21:40;2.90;;;2.70;;
21494;SDS011;10909;53.590;10.054;2023-05-10T13:24:08;3.17;;;2.85;;
21494;SDS011;10909;53.590;10.054;2023-05-10T13:26:39;2.85;;;2.63;;
21494;SDS011;10909;53.590;10.054;2023-05-10T13:29:05;3.10;;;2.90;;
21494;SDS011;10909;53.590;10.054;2023-05-10T13:31:34;4.22;;;3.15;;
21494;SDS011;10909;53.590;10.054;2023-05-10T13:34:17;4.38;;;3.47;;
21494;SDS011;10909;53.590;10.054;2023-05-10T13:36:48;3.78;;;2.90;;
21494;SDS011;10909;53.590;10.054;2023-05-10T13:39:19;3.47;;;2.50;;
21494;SDS011;10909;53.590;10.054;2023-05-10T13:41:47;2.80;;;2.60;;
21494;SDS011;10909;53.590;10.054;2023-05-10T13:44:20;2.92;;;2.63;;
21494;SDS011;10909;53.590;10.054;2023-05-10T13:46:47;2.67;;;2.47;;
21494;SDS011;10909;53.590;10.054;2023-05-10T13:49:14;2.42;;;2.22;;
21494;SDS011;10909;53.590;10.054;2023-05-10T13:51:53;2.40;;;2.20;;
21494;SDS011;10909;53.590;10.054;2023-05-10T13:54:23;2.42;;;2.22;;
21494;SDS011;10909;53.590;10.054;2023-05-10T13:57:01;2.85;;;2.65;;
21494;SDS011;10909;53.590;10.054;2023-05-10T13:59:29;2.80;;;2.60;;
21494;SDS011;10909;53.590;10.054;2023-05-10T14:01:57;2.72;;;2.53;;
21494;SDS011;10909;53.590;10.054;2023-05-10T14:04:24;3.10;;;2.72;;
21494;SDS011;10909;53.590;10.054;2023-05-10T14:06:55;3.15;;;2.85;;
21494;SDS011;10909;53.590;10.054;2023-05-10T14:09:26;2.70;;;2.50;;
21494;SDS011;10909;53.590;10.054;2023-05-10T14:12:00;4.25;;;2.90;;
21494;SDS011;10909;53.590;10.054;2023-05-10T14:14:28;2.75;;;2.55;;
21494;SDS011;10909;53.590;10.054;2023-05-10T14:16:59;3.00;;;2.78;;
21494;SDS011;10909;53.590;10.054;2023-05-10T14:19:24;0.00;;;0.00;;
21494;SDS011;10909;53.590;10.054;2023-05-10T14:21:52;0.00;;;0.00;;
21494;SDS011;10909;53.590;10.054;2023-05-10T14:24:18;0.00;;;0.00;;
21494;SDS011;10909;53.590;10.054;2023-05-10T14:26:46;0.00;;;0.00;;
21494;SDS011;10909;53.590;10.054;2023-05-10T14:29:22;0.00;;;0.00;;
21494;SDS011;10909;53.590;10.054;2023-05-10T14:31:50;0.00;;;0.00;;
21494;SDS011;10909;53.590;10.054;2023-05-10T14:34:18;0.00;;;0.00;;
21494;SDS011;10909;53.590;10.054;2023-05-10T14:36:46;0.00;;;0.00;;
21494;SDS011;10909;53.590;10.054;2023-05-10T14:39:11;0.00;;;0.00;;
21494;SDS011;10909;53.590;10.054;2023-05-10T14:41:38;0.00;;;0.00;;
21494;SDS011;10909;53.590;10.054;2023-05-10T14:44:08;0.00;;;0.00;;
21494;SDS011;10909;53.590;10.054;2023-05-10T14:46:36;0.00;;;0.00;;
21494;SDS011;10909;53.590;10.054;2023-05-10T14:49:07;0.00;;;0.00;;
21494;SDS011;10909;53.590;10.054;2023-05-10T14:51:35;0.10;;;0.10;;
21494;SDS011;10909;53.590;10.054;2023-05-10T14:54:06;0.00;;;0.00;;
21494;SDS011;10909;53.590;10.054;2023-05-10T14:56:32;2.47;;;2.28;;
21494;SDS011;10909;53.590;10.054;2023-05-10T14:58:59;2.38;;;2.17;;
21494;SDS011;10909;53.590;10.054;2023-05-10T15:01:29;2.38;;;2.17;;
21494;SDS011;10909;53.590;10.054;2023-05-10T15:03:57;2.40;;;2.20;;
21494;SDS011;10909;53.590;10.054;2023-05-10T15:06:35;2.60;;;2.40;;
21494;SDS011;10909;53.590;10.054;2023-05-10T15:09:05;3.08;;;2.63;;
21494;SDS011;10909;53.590;10.054;2023-05-10T15:11:31;2.60;;;2.40;;
21494;SDS011;10909;53.590;10.054;2023-05-10T15:13:58;2.53;;;2.33;;
21494;SDS011;10909;53.590;10.054;2023-05-10T15:16:30;3.30;;;3.10;;
21494;SDS011;10909;53.590;10.054;2023-05-10T15:18:57;2.67;;;2.47;;
21494;SDS011;10909;53.590;10.054;2023-05-10T15:21:27;2.50;;;2.30;;
21494;SDS011;10909;53.590;10.054;2023-05-10T15:24:00;2.83;;;2.40;;